createdAt,value
2018-04-29T00:02:37.973Z,6.90
2018-04-29T00:05:59.841Z,6.83
2018-04-29T00:09:25.945Z,7.43
2018-04-29T00:12:53.435Z,6.90
2018-04-29T00:16:18.249Z,6.80
2018-04-29T00:19:41.731Z,7.10
2018-04-29T00:23:06.436Z,7.00
2018-04-29T00:26:28.881Z,6.83
2018-04-29T00:40:24.676Z,6.40
2018-04-29T00:43:49.249Z,5.90
2018-04-29T00:47:12.092Z,6.10
2018-04-29T00:50:35.879Z,6.23
2018-04-29T00:54:01.781Z,7.27
2018-04-29T01:01:05.426Z,5.10
2018-04-29T01:04:31.799Z,5.30
2018-04-29T01:07:56.251Z,5.90
2018-04-29T01:11:20.574Z,5.30
2018-04-29T01:14:45.024Z,5.40
2018-04-29T01:18:10.067Z,4.90
2018-04-29T01:21:31.805Z,5.57
2018-04-29T01:24:53.524Z,5.27
2018-04-29T01:28:16.528Z,5.33
2018-04-29T01:31:39.037Z,6.10
2018-04-29T01:35:01.617Z,5.07
2018-04-29T01:38:23.396Z,4.90
2018-04-29T01:41:49.510Z,4.63
2018-04-29T01:45:12.868Z,5.17
2018-04-29T01:48:36.623Z,5.00
2018-04-29T01:51:58.396Z,5.63
2018-04-29T01:55:20.095Z,5.20
2018-04-29T01:58:41.763Z,5.97
2018-04-29T02:02:03.531Z,6.40
2018-04-29T02:05:25.299Z,6.40
2018-04-29T02:08:47.051Z,6.70
2018-04-29T02:12:22.413Z,5.27
2018-04-29T02:15:44.192Z,5.70
2018-04-29T02:19:05.928Z,6.00
2018-04-29T02:22:27.623Z,6.00
2018-04-29T02:25:49.328Z,5.90
2018-04-29T02:29:11.053Z,5.70
2018-04-29T02:32:32.756Z,5.43
2018-04-29T02:35:54.478Z,5.50
2018-04-29T02:39:16.188Z,5.73
2018-04-29T02:42:37.919Z,5.57
2018-04-29T02:45:59.624Z,5.20
2018-04-29T02:49:21.370Z,5.33
2018-04-29T02:52:43.092Z,5.80
2018-04-29T02:56:04.930Z,5.50
2018-04-29T02:59:26.725Z,4.23
2018-04-29T03:02:48.449Z,5.40
2018-04-29T03:06:10.253Z,6.37
2018-04-29T03:09:31.928Z,6.23
2018-04-29T03:12:53.655Z,6.00
2018-04-29T03:16:15.368Z,5.77
2018-04-29T03:19:37.101Z,6.50
2018-04-29T03:22:58.822Z,6.17
2018-04-29T03:26:20.528Z,5.90
2018-04-29T03:29:42.244Z,5.53
2018-04-29T03:33:04.808Z,5.20
2018-04-29T03:36:26.573Z,5.00
2018-04-29T03:39:48.488Z,5.63
2018-04-29T03:43:10.249Z,5.10
2018-04-29T03:46:31.993Z,5.47
2018-04-29T03:49:53.737Z,5.30
2018-04-29T03:53:15.416Z,6.70
2018-04-29T03:56:37.216Z,6.30
2018-04-29T04:00:04.805Z,5.90
2018-04-29T04:03:32.247Z,6.67
2018-04-29T04:06:53.949Z,6.30
2018-04-29T04:10:15.690Z,6.03
2018-04-29T04:13:37.408Z,6.90
2018-04-29T04:16:59.163Z,6.23
2018-04-29T04:20:20.930Z,5.30
2018-04-29T04:23:42.696Z,6.20
2018-04-29T04:27:04.397Z,6.03
2018-04-29T04:30:26.165Z,5.57
2018-04-29T04:33:47.928Z,5.60
2018-04-29T04:37:11.928Z,6.50
2018-04-29T04:40:33.713Z,4.93
2018-04-29T04:43:55.430Z,6.63
2018-04-29T04:47:17.222Z,4.73
2018-04-29T04:50:38.972Z,5.50
2018-04-29T04:54:02.370Z,5.57
2018-04-29T04:57:24.096Z,5.83
2018-04-29T05:00:45.887Z,5.97
2018-04-29T05:04:07.580Z,5.60
2018-04-29T05:07:29.318Z,4.97
2018-04-29T05:10:51.192Z,4.67
2018-04-29T05:14:14.032Z,5.10
2018-04-29T05:17:37.123Z,4.60
2018-04-29T05:20:59.665Z,4.20
2018-04-29T05:24:21.476Z,3.90
2018-04-29T05:27:43.187Z,3.90
2018-04-29T05:31:13.803Z,3.73
2018-04-29T05:34:44.385Z,4.20
2018-04-29T05:38:06.153Z,4.30
2018-04-29T05:41:29.883Z,3.80
2018-04-29T05:44:52.385Z,3.47
2018-04-29T05:48:14.147Z,3.50
2018-04-29T05:51:35.942Z,3.10
2018-04-29T05:54:57.711Z,4.20
2018-04-29T05:58:19.428Z,4.10
2018-04-29T06:01:41.149Z,4.13
2018-04-29T06:05:02.941Z,4.43
2018-04-29T06:08:25.526Z,4.00
2018-04-29T06:11:47.235Z,3.90
2018-04-29T06:15:09.031Z,3.80
2018-04-29T06:18:30.772Z,3.73
2018-04-29T06:21:52.466Z,4.20
2018-04-29T06:25:14.217Z,4.10
2018-04-29T06:28:35.908Z,3.60
2018-04-29T06:31:57.699Z,4.17
2018-04-29T06:35:19.405Z,3.00
2018-04-29T06:38:41.233Z,3.17
2018-04-29T06:42:02.929Z,3.40
2018-04-29T06:45:26.004Z,4.20
2018-04-29T06:48:47.720Z,4.17
2018-04-29T06:52:09.497Z,3.27
2018-04-29T06:55:31.261Z,2.83
2018-04-29T06:58:53.025Z,3.23
2018-04-29T07:02:14.752Z,3.23
2018-04-29T07:05:36.464Z,3.20
2018-04-29T07:08:58.222Z,4.00
2018-04-29T07:12:20.023Z,3.40
2018-04-29T07:15:41.792Z,4.30
2018-04-29T07:19:03.514Z,3.03
2018-04-29T07:22:25.232Z,3.87
2018-04-29T07:25:48.243Z,4.50
2018-04-29T07:29:09.987Z,3.20
2018-04-29T07:32:33.556Z,3.90
2018-04-29T07:35:55.290Z,3.70
2018-04-29T07:39:17.850Z,3.57
2018-04-29T07:42:56.699Z,3.90
2018-04-29T07:46:18.449Z,3.33
2018-04-29T07:49:43.051Z,4.10
2018-04-29T07:53:08.351Z,3.30
2018-04-29T07:56:32.741Z,4.67
2018-04-29T07:59:56.270Z,3.47
2018-04-29T08:03:18.041Z,4.23
2018-04-29T08:06:40.003Z,4.07
2018-04-29T08:10:05.582Z,3.67
2018-04-29T08:13:30.404Z,3.40
2018-04-29T08:20:25.395Z,3.70
2018-04-29T08:23:48.094Z,3.60
2018-04-29T08:27:10.675Z,4.83
2018-04-29T08:30:35.944Z,4.67
2018-04-29T08:33:59.591Z,4.83
2018-04-29T08:37:22.436Z,4.87
2018-04-29T08:40:44.180Z,4.60
2018-04-29T08:44:05.844Z,4.33
2018-04-29T08:47:27.485Z,5.70
2018-04-29T08:50:49.138Z,5.43
2018-04-29T08:54:10.778Z,5.93
2018-04-29T08:57:33.724Z,4.60
2018-04-29T09:00:55.477Z,4.50
2018-04-29T09:04:17.125Z,4.57
2018-04-29T09:07:38.763Z,4.93
2018-04-29T09:11:00.405Z,5.20
2018-04-29T09:14:22.102Z,5.30
2018-04-29T09:17:50.049Z,5.70
2018-04-29T09:21:11.830Z,5.60
2018-04-29T09:24:33.532Z,6.27
2018-04-29T09:27:55.189Z,5.63
2018-04-29T09:31:16.825Z,5.20
2018-04-29T09:34:38.477Z,6.10
2018-04-29T09:38:00.113Z,6.33
2018-04-29T09:41:21.766Z,5.33
2018-04-29T09:44:43.430Z,6.20
2018-04-29T09:48:05.103Z,6.60
2018-04-29T09:51:26.781Z,6.37
2018-04-29T09:54:48.501Z,6.07
2018-04-29T09:58:10.168Z,7.07
2018-04-29T10:01:35.631Z,5.57
2018-04-29T10:04:57.273Z,6.10
2018-04-29T10:08:18.902Z,6.50
2018-04-29T10:11:40.534Z,6.57
2018-04-29T10:15:02.215Z,5.90
2018-04-29T10:18:23.860Z,5.50
2018-04-29T10:21:45.499Z,6.43
2018-04-29T10:25:07.156Z,6.53
2018-04-29T10:28:28.796Z,6.53
2018-04-29T10:31:50.441Z,5.87
2018-04-29T10:35:12.090Z,5.07
2018-04-29T10:38:33.719Z,6.33
2018-04-29T10:41:55.360Z,6.30
2018-04-29T10:45:17.013Z,5.53
2018-04-29T10:48:38.696Z,6.43
2018-04-29T10:52:00.406Z,5.67
2018-04-29T10:55:22.054Z,6.47
2018-04-29T10:58:43.724Z,5.37
2018-04-29T11:02:05.373Z,5.90
2018-04-29T11:05:27.013Z,6.40
2018-04-29T11:08:48.641Z,5.97
2018-04-29T11:12:10.286Z,5.97
2018-04-29T11:15:32.120Z,5.70
2018-04-29T11:18:53.755Z,6.10
2018-04-29T11:22:15.481Z,6.20
2018-04-29T11:25:37.065Z,5.67
2018-04-29T11:28:58.693Z,6.70
2018-04-29T11:32:20.340Z,6.70
2018-04-29T11:35:41.997Z,7.30
2018-04-29T11:39:03.652Z,7.00
2018-04-29T11:42:25.281Z,6.63
2018-04-29T11:45:46.933Z,7.03
2018-04-29T11:49:08.582Z,8.40
2018-04-29T11:52:30.225Z,6.70
2018-04-29T11:55:51.872Z,6.50
2018-04-29T11:59:13.517Z,6.00
2018-04-29T12:02:35.212Z,5.40
2018-04-29T12:05:56.799Z,6.80
2018-04-29T12:09:18.445Z,5.70
2018-04-29T12:12:40.084Z,5.43
2018-04-29T12:16:01.742Z,6.03
2018-04-29T12:19:23.400Z,6.17
2018-04-29T12:22:45.039Z,5.60
2018-04-29T12:26:06.693Z,5.77
2018-04-29T12:29:28.346Z,5.10
2018-04-29T12:32:49.983Z,6.20
2018-04-29T12:36:11.630Z,5.07
2018-04-29T12:39:33.265Z,3.93
2018-04-29T12:42:54.912Z,4.20
2018-04-29T12:46:16.568Z,5.37
2018-04-29T12:49:38.240Z,3.80
2018-04-29T12:52:59.889Z,4.47
2018-04-29T12:56:21.533Z,4.07
2018-04-29T12:59:43.204Z,4.83
2018-04-29T13:03:04.851Z,4.00
2018-04-29T13:06:26.482Z,4.57
2018-04-29T13:09:48.141Z,4.90
2018-04-29T13:13:09.776Z,4.80
2018-04-29T13:16:31.422Z,5.10
2018-04-29T13:19:53.079Z,4.30
2018-04-29T13:23:14.714Z,4.07
2018-04-29T13:26:36.357Z,5.03
2018-04-29T13:29:58.005Z,4.93
2018-04-29T13:33:19.642Z,4.53
2018-04-29T13:36:41.294Z,4.83
2018-04-29T13:40:02.932Z,5.03
2018-04-29T13:43:24.572Z,4.60
2018-04-29T13:46:46.225Z,5.00
2018-04-29T13:50:07.864Z,4.73
2018-04-29T13:53:29.505Z,4.30
2018-04-29T13:56:51.162Z,4.17
2018-04-29T14:00:12.811Z,4.47
2018-04-29T14:03:34.457Z,4.63
2018-04-29T14:06:56.138Z,4.30
2018-04-29T14:10:17.810Z,4.47
2018-04-29T14:13:39.444Z,4.10
2018-04-29T14:17:01.102Z,4.60
2018-04-29T14:20:22.750Z,4.47
2018-04-29T14:23:44.385Z,4.00
2018-04-29T14:27:06.034Z,4.70
2018-04-29T14:30:27.706Z,5.67
2018-04-29T14:33:49.356Z,3.90
2018-04-29T14:37:11.006Z,5.30
2018-04-29T14:40:32.690Z,4.17
2018-04-29T14:43:54.338Z,4.93
2018-04-29T14:47:16.007Z,4.53
2018-04-29T14:50:37.659Z,3.93
2018-04-29T14:53:59.301Z,3.83
2018-04-29T14:57:20.953Z,4.50
2018-04-29T15:00:42.599Z,4.70
2018-04-29T15:04:04.251Z,3.80
2018-04-29T15:07:25.893Z,4.40
2018-04-29T15:10:47.538Z,4.07
2018-04-29T15:14:09.189Z,4.80
2018-04-29T15:17:30.825Z,4.53
2018-04-29T15:20:52.465Z,3.93
2018-04-29T15:24:14.121Z,4.60
2018-04-29T15:27:35.758Z,4.70
2018-04-29T15:30:57.402Z,4.37
2018-04-29T15:34:19.064Z,4.27
2018-04-29T15:37:40.718Z,4.30
2018-04-29T15:41:02.370Z,4.40
2018-04-29T15:44:24.024Z,4.80
2018-04-29T15:47:45.665Z,5.70
2018-04-29T15:51:07.321Z,3.67
2018-04-29T15:54:28.983Z,4.00
2018-04-29T15:57:50.619Z,4.37
2018-04-29T16:01:12.325Z,5.23
2018-04-29T16:04:33.966Z,4.57
2018-04-29T16:07:55.601Z,4.67
2018-04-29T16:11:17.281Z,4.60
2018-04-29T16:14:38.976Z,4.23
2018-04-29T16:18:00.607Z,3.83
2018-04-29T16:21:22.278Z,4.40
2018-04-29T16:24:43.938Z,4.77
2018-04-29T16:28:05.592Z,5.07
2018-04-29T16:31:27.252Z,6.07
2018-04-29T16:34:48.913Z,9.23
2018-04-29T16:38:10.647Z,6.27
2018-04-29T16:41:32.384Z,7.40
2018-04-29T16:44:54.194Z,5.10
2018-04-29T16:48:15.897Z,5.83
2018-04-29T16:51:38.688Z,4.53
2018-04-29T16:55:00.454Z,5.10
2018-04-29T16:58:22.257Z,5.43
2018-04-29T17:01:44.338Z,5.50
2018-04-29T17:05:08.229Z,5.27
2018-04-29T17:08:30.377Z,5.60
2018-04-29T17:11:52.333Z,9.53
2018-04-29T17:15:15.077Z,9.77
2018-04-29T17:18:37.702Z,7.03
2018-04-29T17:21:59.932Z,7.13
2018-04-29T17:25:21.807Z,6.60
2018-04-29T17:28:44.238Z,5.20
2018-04-29T17:32:06.178Z,4.50
2018-04-29T17:35:27.887Z,4.53
2018-04-29T17:38:49.521Z,5.30
2018-04-29T17:42:11.390Z,4.70
2018-04-29T17:45:33.110Z,5.17
2018-04-29T17:48:54.811Z,5.20
2018-04-29T17:52:17.120Z,6.03
2018-04-29T17:55:38.761Z,6.20
2018-04-29T17:59:00.444Z,5.17
2018-04-29T18:02:22.168Z,5.40
2018-04-29T18:05:43.980Z,6.23
2018-04-29T18:09:05.637Z,6.40
2018-04-29T18:12:27.401Z,5.80
2018-04-29T18:15:49.276Z,6.80
2018-04-29T18:19:10.931Z,6.87
2018-04-29T18:22:32.618Z,6.90
2018-04-29T18:25:54.486Z,6.60
2018-04-29T18:29:17.168Z,6.27
2018-04-29T18:32:38.835Z,7.00
2018-04-29T18:36:00.517Z,6.07
2018-04-29T18:39:22.190Z,7.90
2018-04-29T18:42:43.833Z,6.27
2018-04-29T18:46:05.498Z,8.13
2018-04-29T18:49:27.512Z,7.20
2018-04-29T18:52:49.347Z,7.70
2018-04-29T18:56:11.198Z,7.20
2018-04-29T18:59:33.077Z,7.83
2018-04-29T19:44:58.364Z,6.97
2018-04-29T19:48:28.450Z,9.00
2018-04-29T19:52:15.015Z,6.60
2018-04-29T19:55:42.815Z,7.07
2018-04-29T19:59:08.695Z,6.70
2018-04-29T20:02:41.425Z,6.30
2018-04-29T20:06:09.084Z,7.57
2018-04-29T20:09:34.185Z,6.87
2018-04-29T20:16:46.676Z,6.63
2018-04-29T20:24:08.617Z,7.20
2018-04-29T20:27:48.001Z,6.27
2018-04-29T20:31:09.855Z,6.37
2018-04-29T20:34:48.584Z,6.37
2018-04-29T20:38:23.562Z,6.63
2018-04-29T20:41:53.587Z,6.20
2018-04-29T20:45:21.771Z,4.97
2018-04-29T20:48:43.494Z,5.43
2018-04-29T20:53:28.351Z,5.30
2018-04-29T20:56:30.092Z,6.93
2018-04-29T20:59:34.665Z,6.23
2018-04-29T21:02:37.760Z,5.60
2018-04-29T21:05:39.616Z,6.80
2018-04-29T21:08:42.974Z,5.33
2018-04-29T21:11:44.621Z,6.23
2018-04-29T21:14:46.287Z,5.77
2018-04-29T21:17:47.939Z,5.60
2018-04-29T21:20:49.602Z,5.50
2018-04-29T21:23:51.242Z,5.77
2018-04-29T21:26:52.887Z,6.13
2018-04-29T21:29:54.539Z,6.67
2018-04-29T21:32:56.167Z,5.90
2018-04-29T21:35:57.829Z,6.67
2018-04-29T21:38:59.456Z,6.93
2018-04-29T21:42:01.090Z,7.50
2018-04-29T21:45:02.747Z,6.30
2018-04-29T21:48:04.380Z,8.17
2018-04-29T21:51:06.134Z,8.10
2018-04-29T21:54:08.004Z,7.47
2018-04-29T21:57:09.715Z,7.17
2018-04-29T22:00:11.416Z,6.83
2018-04-29T22:03:13.133Z,8.10
2018-04-29T22:06:15.018Z,6.90
2018-04-29T22:09:16.731Z,7.50
2018-04-29T22:12:18.439Z,7.53
2018-04-29T22:15:20.211Z,6.77
2018-04-29T22:18:22.955Z,7.07
2018-04-29T22:21:24.633Z,7.80
2018-04-29T22:24:27.539Z,8.10
2018-04-29T22:27:29.277Z,8.40
2018-04-29T22:30:30.992Z,8.23
2018-04-29T22:33:33.997Z,7.30
2018-04-29T22:36:35.742Z,7.53
2018-04-29T22:39:37.401Z,7.00
2018-04-29T22:42:39.092Z,7.50
2018-04-29T22:45:40.766Z,8.87
2018-04-29T22:48:42.393Z,6.93
2018-04-29T22:51:44.065Z,6.47
2018-04-29T22:54:45.744Z,7.00
2018-04-29T22:57:47.385Z,6.83
2018-04-29T23:00:50.685Z,6.70
2018-04-29T23:03:52.545Z,6.90
2018-04-29T23:06:54.231Z,7.40
2018-04-29T23:09:55.931Z,6.97
2018-04-29T23:12:57.619Z,6.73
2018-04-29T23:15:59.330Z,7.80
2018-04-29T23:19:01.018Z,8.27
2018-04-29T23:22:02.724Z,8.73
2018-04-29T23:25:04.421Z,8.63
2018-04-29T23:28:06.090Z,9.07
2018-04-29T23:31:07.804Z,8.10
2018-04-29T23:34:09.584Z,8.57
2018-04-29T23:37:12.294Z,8.10
2018-04-29T23:40:14.025Z,8.87
2018-04-29T23:43:15.750Z,7.67
2018-04-29T23:46:17.455Z,7.70
2018-04-29T23:49:19.159Z,7.40
2018-04-29T23:52:20.854Z,7.47
2018-04-29T23:55:22.532Z,6.50
2018-04-29T23:58:24.216Z,6.33
